createdAt,value
2022-11-18T00:02:18.037Z,1.30
2022-11-18T00:04:46.063Z,1.20
2022-11-18T00:07:14.069Z,1.30
2022-11-18T00:09:42.012Z,1.37
2022-11-18T00:12:28.559Z,1.50
2022-11-18T00:14:56.509Z,1.37
2022-11-18T00:17:24.421Z,1.07
2022-11-18T00:19:52.322Z,1.10
2022-11-18T00:22:22.322Z,1.60
2022-11-18T00:24:53.482Z,1.00
2022-11-18T00:27:22.878Z,1.23
2022-11-18T00:29:50.758Z,1.10
2022-11-18T00:32:18.686Z,1.40
2022-11-18T00:34:46.670Z,1.20
2022-11-18T00:37:14.555Z,1.40
2022-11-18T00:39:42.455Z,2.00
2022-11-18T00:42:27.941Z,1.53
2022-11-18T00:44:57.294Z,1.47
2022-11-18T00:47:25.195Z,1.57
2022-11-18T00:49:53.137Z,1.47
2022-11-18T00:52:21.046Z,1.43
2022-11-18T00:54:49.041Z,1.53
2022-11-18T00:57:16.949Z,1.27
2022-11-18T00:59:44.842Z,1.03
2022-11-18T01:02:14.211Z,1.10
2022-11-18T01:04:42.108Z,0.90
2022-11-18T01:07:10.164Z,0.60
2022-11-18T01:09:38.448Z,0.57
2022-11-18T01:12:23.666Z,0.60
2022-11-18T01:14:51.572Z,0.40
2022-11-18T01:17:20.939Z,0.50
2022-11-18T01:19:48.866Z,0.30
2022-11-18T01:22:16.774Z,0.50
2022-11-18T01:24:44.745Z,0.40
2022-11-18T01:27:12.650Z,0.60
2022-11-18T01:29:40.542Z,0.50
2022-11-18T01:32:23.820Z,0.50
2022-11-18T01:34:54.117Z,0.60
2022-11-18T01:37:22.046Z,0.47
2022-11-18T01:39:49.937Z,0.47
2022-11-18T01:42:18.444Z,0.33
2022-11-18T01:44:57.454Z,0.40
2022-11-18T01:47:26.128Z,0.70
2022-11-18T01:49:55.553Z,0.40
2022-11-18T01:52:23.993Z,0.43
2022-11-18T01:54:55.598Z,0.40
2022-11-18T01:57:24.276Z,0.40
2022-11-18T01:59:56.044Z,0.50
2022-11-18T02:02:24.707Z,0.57
2022-11-18T02:04:53.617Z,0.47
2022-11-18T02:07:23.651Z,0.40
2022-11-18T02:09:52.361Z,0.27
2022-11-18T02:12:20.599Z,0.50
2022-11-18T02:14:49.212Z,0.40
2022-11-18T02:17:22.422Z,0.40
2022-11-18T02:20:03.241Z,0.30
2022-11-18T02:22:43.219Z,0.90
2022-11-18T02:25:17.038Z,0.40
2022-11-18T02:28:07.877Z,0.30
2022-11-18T02:30:41.841Z,0.47
2022-11-18T02:33:11.467Z,0.50
2022-11-18T02:35:42.019Z,0.40
2022-11-18T02:38:11.178Z,0.43
2022-11-18T02:40:41.256Z,0.40
2022-11-18T02:43:11.579Z,0.70
2022-11-18T02:45:43.268Z,0.40
2022-11-18T02:48:12.172Z,0.37
2022-11-18T02:50:41.141Z,0.50
2022-11-18T02:53:09.841Z,0.30
2022-11-18T02:55:39.485Z,0.60
2022-11-18T02:58:07.889Z,0.43
2022-11-18T03:00:37.494Z,0.43
2022-11-18T03:03:24.735Z,0.50
2022-11-18T03:05:54.947Z,0.50
2022-11-18T03:08:27.081Z,0.57
2022-11-18T03:10:59.994Z,0.47
2022-11-18T03:13:29.980Z,0.50
2022-11-18T03:16:00.557Z,0.30
2022-11-18T03:18:31.836Z,0.30
2022-11-18T03:21:02.808Z,0.37
2022-11-18T03:23:33.260Z,0.40
2022-11-18T03:26:03.606Z,0.47
2022-11-18T03:28:35.834Z,0.60
2022-11-18T03:31:05.617Z,0.70
2022-11-18T03:33:37.028Z,0.73
2022-11-18T03:36:08.069Z,0.30
2022-11-18T03:38:38.838Z,0.50
2022-11-18T03:41:09.546Z,0.60
2022-11-18T03:43:38.721Z,0.30
2022-11-18T03:46:08.454Z,0.40
2022-11-18T03:48:43.612Z,0.40
2022-11-18T03:51:12.917Z,0.40
2022-11-18T03:53:44.414Z,0.37
2022-11-18T03:56:17.535Z,0.37
2022-11-18T03:58:48.838Z,0.67
2022-11-18T04:01:19.692Z,0.57
2022-11-18T04:03:50.267Z,0.43
2022-11-18T04:06:22.537Z,0.53
2022-11-18T04:08:53.570Z,0.50
2022-11-18T04:11:38.785Z,0.30
2022-11-18T04:14:08.743Z,0.50
2022-11-18T04:16:40.467Z,0.83
2022-11-18T04:19:09.856Z,0.50
2022-11-18T04:21:37.894Z,0.30
2022-11-18T04:24:06.034Z,0.40
2022-11-18T04:26:34.077Z,0.30
2022-11-18T04:29:02.069Z,0.50
2022-11-18T04:31:30.077Z,0.50
2022-11-18T04:33:58.056Z,0.50
2022-11-18T04:36:27.539Z,0.40
2022-11-18T04:38:55.594Z,0.50
2022-11-18T04:41:44.693Z,0.40
2022-11-18T04:44:14.256Z,0.43
2022-11-18T04:46:43.430Z,0.30
2022-11-18T04:49:11.971Z,0.47
2022-11-18T04:51:41.694Z,0.40
2022-11-18T04:54:10.187Z,0.57
2022-11-18T04:56:45.781Z,0.40
2022-11-18T04:59:19.439Z,0.37
2022-11-18T05:01:47.717Z,0.40
2022-11-18T05:04:16.274Z,0.30
2022-11-18T05:06:45.599Z,0.40
2022-11-18T05:09:13.592Z,0.40
2022-11-18T05:12:01.885Z,0.40
2022-11-18T05:14:31.990Z,0.27
2022-11-18T05:17:01.522Z,0.50
2022-11-18T05:19:29.417Z,0.40
2022-11-18T05:21:59.229Z,0.50
2022-11-18T05:24:27.223Z,0.33
2022-11-18T05:26:55.936Z,0.50
2022-11-18T05:29:24.340Z,0.40
2022-11-18T05:31:52.349Z,0.50
2022-11-18T05:34:20.774Z,0.50
2022-11-18T05:36:48.719Z,0.67
2022-11-18T05:39:18.380Z,0.50
2022-11-18T05:42:06.351Z,0.73
2022-11-18T05:44:34.283Z,0.70
2022-11-18T05:47:02.242Z,0.57
2022-11-18T05:49:30.158Z,0.57
2022-11-18T05:51:58.111Z,0.40
2022-11-18T05:54:27.681Z,0.57
2022-11-18T05:56:55.634Z,0.50
2022-11-18T05:59:23.591Z,0.47
2022-11-18T06:01:53.605Z,0.53
2022-11-18T06:04:23.945Z,0.53
2022-11-18T06:06:52.838Z,0.60
2022-11-18T06:09:22.148Z,0.80
2022-11-18T06:11:54.025Z,0.50
2022-11-18T06:14:23.077Z,0.50
2022-11-18T06:16:53.265Z,0.90
2022-11-18T06:19:21.207Z,0.80
2022-11-18T06:21:49.460Z,1.03
2022-11-18T06:24:17.789Z,1.13
2022-11-18T06:26:45.811Z,0.50
2022-11-18T06:29:19.460Z,0.80
2022-11-18T06:31:49.716Z,0.97
2022-11-18T06:34:17.588Z,0.50
2022-11-18T06:36:45.490Z,1.20
2022-11-18T06:39:13.442Z,0.97
2022-11-18T06:41:41.348Z,0.70
2022-11-18T06:44:08.301Z,0.50
2022-11-18T06:46:57.351Z,0.80
2022-11-18T06:49:25.461Z,0.80
2022-11-18T06:51:53.530Z,0.97
2022-11-18T06:54:21.530Z,0.70
2022-11-18T06:56:49.500Z,0.73
2022-11-18T06:59:23.763Z,1.10
2022-11-18T07:01:53.793Z,0.87
2022-11-18T07:04:21.774Z,2.20
2022-11-18T07:06:50.093Z,0.63
2022-11-18T07:09:18.209Z,0.90
2022-11-18T07:11:46.312Z,0.67
2022-11-18T07:14:14.526Z,0.60
2022-11-18T07:16:42.466Z,0.80
2022-11-18T07:19:12.970Z,1.00
2022-11-18T07:21:41.581Z,0.90
2022-11-18T07:24:10.169Z,0.93
2022-11-18T07:26:38.319Z,0.60
2022-11-18T07:29:06.247Z,0.80
2022-11-18T07:31:35.488Z,1.10
2022-11-18T07:34:03.448Z,1.10
2022-11-18T07:36:35.827Z,0.87
2022-11-18T07:39:05.310Z,0.77
2022-11-18T07:41:33.656Z,0.80
2022-11-18T07:44:02.240Z,0.90
2022-11-18T07:46:31.166Z,0.67
2022-11-18T07:48:59.957Z,0.80
2022-11-18T07:51:29.096Z,0.83
2022-11-18T07:53:58.545Z,0.80
2022-11-18T07:56:26.497Z,0.60
2022-11-18T07:58:54.838Z,1.20
2022-11-18T08:01:23.618Z,0.83
2022-11-18T08:03:51.916Z,0.60
2022-11-18T08:06:20.478Z,1.07
2022-11-18T08:08:48.703Z,0.80
2022-11-18T08:11:22.659Z,1.00
2022-11-18T08:13:51.080Z,0.80
2022-11-18T08:16:19.733Z,1.20
2022-11-18T08:18:47.864Z,1.20
2022-11-18T08:21:16.156Z,0.90
2022-11-18T08:23:44.120Z,0.73
2022-11-18T08:26:13.348Z,1.30
2022-11-18T08:28:42.850Z,1.20
2022-11-18T08:31:11.842Z,0.70
2022-11-18T08:33:39.997Z,0.80
2022-11-18T08:36:08.723Z,1.27
2022-11-18T08:38:37.423Z,1.03
2022-11-18T08:41:07.459Z,0.93
2022-11-18T08:43:36.402Z,0.80
2022-11-18T08:46:05.789Z,1.20
2022-11-18T08:48:33.728Z,1.23
2022-11-18T08:51:01.721Z,1.10
2022-11-18T08:53:29.690Z,0.90
2022-11-18T08:55:58.272Z,0.87
2022-11-18T08:58:26.431Z,0.93
2022-11-18T09:00:54.618Z,1.10
2022-11-18T09:03:24.130Z,1.30
2022-11-18T09:05:52.050Z,1.10
2022-11-18T09:08:20.124Z,0.97
2022-11-18T09:10:48.007Z,2.23
2022-11-18T09:13:44.743Z,0.90
2022-11-18T09:16:03.886Z,0.90
2022-11-18T09:18:33.455Z,0.73
2022-11-18T09:21:02.373Z,1.20
2022-11-18T09:23:30.382Z,1.43
2022-11-18T09:25:58.833Z,1.10
2022-11-18T09:28:26.917Z,1.70
2022-11-18T09:30:55.138Z,1.77
2022-11-18T09:33:23.027Z,1.17
2022-11-18T09:35:52.342Z,1.73
2022-11-18T09:38:20.324Z,1.67
2022-11-18T09:40:52.481Z,1.70
2022-11-18T09:43:22.137Z,1.50
2022-11-18T09:45:53.630Z,1.30
2022-11-18T09:48:42.973Z,1.20
2022-11-18T09:51:12.824Z,1.07
2022-11-18T09:53:43.073Z,1.47
2022-11-18T09:56:15.122Z,1.10
2022-11-18T09:58:43.597Z,1.17
2022-11-18T10:01:13.390Z,1.17
2022-11-18T10:03:41.645Z,0.90
2022-11-18T10:06:23.397Z,1.13
2022-11-18T10:08:59.515Z,1.00
2022-11-18T10:11:29.500Z,0.93
2022-11-18T10:14:07.039Z,1.00
2022-11-18T10:16:43.784Z,1.40
2022-11-18T10:19:17.169Z,1.10
2022-11-18T10:21:50.231Z,1.10
2022-11-18T10:24:20.358Z,1.30
2022-11-18T10:26:48.737Z,1.30
2022-11-18T10:29:16.695Z,1.10
2022-11-18T10:31:59.754Z,1.40
2022-11-18T10:34:30.656Z,1.40
2022-11-18T10:37:01.521Z,1.30
2022-11-18T10:39:29.656Z,0.97
2022-11-18T10:42:02.669Z,1.10
2022-11-18T10:44:32.199Z,0.80
2022-11-18T10:47:20.755Z,0.70
2022-11-18T10:49:48.631Z,1.10
2022-11-18T10:52:18.098Z,0.90
2022-11-18T10:54:46.318Z,0.77
2022-11-18T10:57:20.116Z,1.00
2022-11-18T10:59:48.704Z,1.00
2022-11-18T11:02:18.475Z,1.30
2022-11-18T11:04:46.780Z,1.30
2022-11-18T11:07:25.485Z,0.87
2022-11-18T11:10:03.804Z,0.70
2022-11-18T11:12:33.617Z,1.07
2022-11-18T11:15:03.134Z,0.70
2022-11-18T11:17:33.029Z,0.70
2022-11-18T11:20:04.899Z,0.70
2022-11-18T11:22:34.479Z,0.90
2022-11-18T11:25:02.402Z,0.80
2022-11-18T11:30:25.760Z,0.77
2022-11-18T11:33:05.912Z,1.00
2022-11-18T11:35:36.292Z,0.83
2022-11-18T11:38:12.646Z,0.90
2022-11-18T11:40:41.135Z,1.00
2022-11-18T11:43:23.061Z,1.20
2022-11-18T11:46:00.233Z,1.23
2022-11-18T11:48:33.937Z,1.00
2022-11-18T11:51:05.294Z,1.00
2022-11-18T11:53:50.722Z,0.80
2022-11-18T11:56:23.075Z,0.70
2022-11-18T11:59:06.082Z,0.87
2022-11-18T12:01:38.593Z,0.70
2022-11-18T12:04:15.825Z,0.70
2022-11-18T12:06:46.145Z,0.80
2022-11-18T12:09:20.177Z,1.50
2022-11-18T12:11:53.004Z,1.10
2022-11-18T12:14:26.000Z,0.70
2022-11-18T12:16:57.417Z,1.03
2022-11-18T12:19:25.596Z,0.90
2022-11-18T12:21:54.669Z,0.90
2022-11-18T12:24:31.437Z,1.03
2022-11-18T12:27:00.120Z,1.00
2022-11-18T12:29:29.107Z,1.20
2022-11-18T12:31:58.403Z,1.50
2022-11-18T12:34:30.806Z,0.70
2022-11-18T12:36:58.757Z,0.93
2022-11-18T12:39:50.606Z,1.10
2022-11-18T12:42:55.428Z,1.03
2022-11-18T12:45:39.905Z,1.00
2022-11-18T12:48:28.090Z,0.87
2022-11-18T12:50:56.741Z,1.20
2022-11-18T12:53:42.239Z,1.43
2022-11-18T12:56:21.729Z,1.10
2022-11-18T12:58:50.770Z,1.10
2022-11-18T13:01:19.587Z,1.03
2022-11-18T13:03:47.766Z,1.10
2022-11-18T13:06:26.493Z,1.23
2022-11-18T13:08:56.175Z,1.17
2022-11-18T13:11:43.930Z,1.10
2022-11-18T13:14:33.016Z,1.40
2022-11-18T13:17:18.482Z,0.87
2022-11-18T13:19:56.158Z,1.17
2022-11-18T13:22:42.033Z,1.60
2022-11-18T13:25:23.370Z,0.80
2022-11-18T13:27:57.390Z,1.03
2022-11-18T13:30:25.766Z,0.93
2022-11-18T13:32:55.180Z,0.90
2022-11-18T13:35:24.656Z,1.00
2022-11-18T13:37:53.735Z,0.83
2022-11-18T13:40:22.746Z,0.93
2022-11-18T13:42:51.586Z,0.90
2022-11-18T13:45:21.492Z,0.90
2022-11-18T13:47:51.737Z,1.20
2022-11-18T13:50:25.281Z,0.90
2022-11-18T13:52:59.021Z,0.80
2022-11-18T13:55:29.236Z,1.30
2022-11-18T13:58:02.505Z,0.97
2022-11-18T14:00:33.506Z,0.70
2022-11-18T14:03:03.705Z,1.20
2022-11-18T14:05:31.952Z,1.60
2022-11-18T14:08:04.868Z,1.43
2022-11-18T14:10:39.102Z,2.80
2022-11-18T14:13:18.344Z,1.97
2022-11-18T14:15:47.700Z,1.37
2022-11-18T14:18:19.449Z,1.43
2022-11-18T14:20:51.447Z,1.90
2022-11-18T14:23:19.536Z,1.90
2022-11-18T14:25:47.461Z,1.50
2022-11-18T14:28:21.242Z,1.23
2022-11-18T14:30:58.918Z,1.27
2022-11-18T14:33:27.502Z,0.83
2022-11-18T14:35:56.805Z,1.20
2022-11-18T14:41:15.458Z,1.20
2022-11-18T14:43:46.161Z,1.87
2022-11-18T14:46:16.984Z,1.30
2022-11-18T14:48:45.158Z,1.00
2022-11-18T14:51:13.611Z,1.17
2022-11-18T14:53:41.548Z,0.90
2022-11-18T14:56:13.427Z,1.37
2022-11-18T14:58:41.366Z,1.13
2022-11-18T15:01:11.087Z,3.00
2022-11-18T15:03:40.649Z,1.13
2022-11-18T15:06:13.644Z,1.03
2022-11-18T15:08:41.585Z,1.00
2022-11-18T15:11:09.504Z,0.90
2022-11-18T15:13:39.507Z,1.20
2022-11-18T15:16:12.622Z,1.70
2022-11-18T15:18:41.977Z,0.80
2022-11-18T15:21:09.884Z,1.07
2022-11-18T15:23:38.515Z,0.83
2022-11-18T15:26:13.574Z,1.00
2022-11-18T15:28:41.493Z,1.40
2022-11-18T15:31:09.377Z,1.00
2022-11-18T15:33:39.382Z,0.93
2022-11-18T15:36:10.968Z,0.83
2022-11-18T15:38:38.937Z,1.00
2022-11-18T15:41:07.098Z,0.90
2022-11-18T15:43:35.007Z,1.00
2022-11-18T15:46:02.946Z,0.80
2022-11-18T15:48:30.999Z,0.83
2022-11-18T15:50:58.899Z,1.27
2022-11-18T15:53:28.224Z,1.33
2022-11-18T15:56:10.935Z,1.37
2022-11-18T15:58:39.897Z,1.30
2022-11-18T16:01:08.111Z,1.47
2022-11-18T16:03:36.500Z,1.17
2022-11-18T16:06:05.066Z,1.40
2022-11-18T16:08:34.449Z,1.60
2022-11-18T16:11:20.052Z,1.90
2022-11-18T16:13:47.974Z,2.23
2022-11-18T16:16:19.501Z,2.33
2022-11-18T16:18:47.479Z,3.37
2022-11-18T16:21:15.655Z,3.10
2022-11-18T16:23:45.966Z,1.83
2022-11-18T16:26:17.071Z,1.63
2022-11-18T16:28:45.165Z,1.93
2022-11-18T16:31:30.524Z,2.23
2022-11-18T16:33:58.401Z,1.57
2022-11-18T16:36:27.084Z,1.83
2022-11-18T16:38:57.208Z,1.87
2022-11-18T16:41:34.190Z,2.60
2022-11-18T16:44:03.661Z,3.23
2022-11-18T16:46:32.216Z,2.50
2022-11-18T16:49:00.651Z,2.20
2022-11-18T16:51:29.137Z,2.80
2022-11-18T16:53:59.396Z,3.10
2022-11-18T16:56:28.334Z,2.97
2022-11-18T16:58:59.755Z,3.07
2022-11-18T17:01:29.668Z,2.40
2022-11-18T17:03:58.385Z,2.27
2022-11-18T17:06:26.672Z,2.43
2022-11-18T17:08:54.749Z,3.37
2022-11-18T17:11:24.087Z,3.57
2022-11-18T17:13:56.390Z,3.47
2022-11-18T17:16:25.909Z,3.50
2022-11-18T17:18:57.337Z,3.87
2022-11-18T17:21:25.783Z,3.67
2022-11-18T17:23:53.785Z,3.50
2022-11-18T17:26:22.653Z,2.53
2022-11-18T17:28:52.290Z,2.33
2022-11-18T17:31:21.368Z,2.80
2022-11-18T17:33:49.918Z,3.37
2022-11-18T17:36:18.442Z,3.10
2022-11-18T17:38:47.283Z,2.40
2022-11-18T17:41:30.710Z,2.83
2022-11-18T17:44:00.398Z,3.20
2022-11-18T17:46:31.043Z,2.40
2022-11-18T17:49:03.496Z,2.60
2022-11-18T17:51:31.811Z,3.50
2022-11-18T17:53:59.719Z,3.07
2022-11-18T17:56:27.681Z,4.60
2022-11-18T17:58:55.831Z,3.57
2022-11-18T18:01:25.253Z,2.97
2022-11-18T18:03:53.323Z,2.23
2022-11-18T18:06:21.263Z,4.20
2022-11-18T18:08:50.467Z,3.80
2022-11-18T18:11:20.410Z,2.97
2022-11-18T18:14:06.418Z,3.57
2022-11-18T18:16:37.876Z,2.40
2022-11-18T18:19:07.609Z,2.90
2022-11-18T18:21:38.010Z,2.70
2022-11-18T18:24:07.590Z,3.40
2022-11-18T18:26:35.898Z,2.80
2022-11-18T18:29:04.741Z,2.47
2022-11-18T18:31:36.336Z,2.90
2022-11-18T18:34:04.692Z,2.50
2022-11-18T18:36:32.868Z,3.87
2022-11-18T18:39:02.282Z,2.73
2022-11-18T18:41:30.470Z,3.20
2022-11-18T18:43:58.474Z,3.67
2022-11-18T18:46:29.156Z,3.27
2022-11-18T18:48:59.783Z,3.70
2022-11-18T18:51:28.384Z,2.90
2022-11-18T18:53:56.884Z,2.97
2022-11-18T18:56:24.933Z,2.60
2022-11-18T18:58:52.907Z,2.80
2022-11-18T19:01:20.905Z,2.30
2022-11-18T19:03:49.346Z,2.23
2022-11-18T19:09:09.433Z,2.50
2022-11-18T19:11:55.203Z,3.00
2022-11-18T19:14:23.335Z,2.63
2022-11-18T19:16:51.633Z,2.63
2022-11-18T19:19:41.197Z,2.70
2022-11-18T19:22:13.088Z,2.87
2022-11-18T19:24:50.140Z,3.67
2022-11-18T19:27:18.367Z,3.77
2022-11-18T19:29:46.283Z,3.60
2022-11-18T19:32:17.102Z,3.83
2022-11-18T19:34:45.187Z,4.37
2022-11-18T19:37:14.592Z,3.80
2022-11-18T19:39:42.517Z,3.93
2022-11-18T19:42:11.251Z,4.10
2022-11-18T19:44:39.404Z,4.43
2022-11-18T19:47:09.446Z,4.33
2022-11-18T19:49:37.537Z,4.10
2022-11-18T19:52:07.486Z,3.17
2022-11-18T19:54:36.975Z,3.10
2022-11-18T19:57:05.102Z,3.27
2022-11-18T19:59:33.161Z,2.97
2022-11-18T20:02:01.243Z,3.07
2022-11-18T20:04:29.246Z,3.27
2022-11-18T20:06:58.024Z,3.87
2022-11-18T20:09:26.619Z,3.50
2022-11-18T20:11:56.972Z,4.13
2022-11-18T20:14:24.873Z,4.30
2022-11-18T20:16:52.902Z,3.57
2022-11-18T20:19:21.181Z,3.43
2022-11-18T20:21:49.614Z,4.47
2022-11-18T20:24:18.305Z,5.00
2022-11-18T20:26:46.942Z,4.07
2022-11-18T20:29:16.947Z,3.57
2022-11-18T20:31:45.360Z,3.83
2022-11-18T20:34:14.413Z,3.17
2022-11-18T20:36:42.579Z,3.23
2022-11-18T20:39:13.455Z,3.00
2022-11-18T20:41:41.369Z,3.00
2022-11-18T20:44:09.301Z,3.47
2022-11-18T20:46:38.917Z,4.70
2022-11-18T20:49:07.069Z,4.93
2022-11-18T20:51:37.251Z,3.60
2022-11-18T20:54:09.309Z,3.10
2022-11-18T20:56:37.365Z,3.40
2022-11-18T20:59:05.278Z,3.40
2022-11-18T21:01:34.245Z,5.57
2022-11-18T21:04:04.602Z,2.33
2022-11-18T21:06:33.102Z,2.30
2022-11-18T21:09:02.560Z,2.80
2022-11-18T21:11:31.056Z,3.40
2022-11-18T21:14:22.912Z,3.40
2022-11-18T21:16:52.752Z,5.60
2022-11-18T21:19:22.458Z,5.67
2022-11-18T21:21:52.046Z,4.80
2022-11-18T21:24:20.791Z,6.23
2022-11-18T21:26:49.439Z,5.27
2022-11-18T21:29:18.462Z,5.30
2022-11-18T21:31:47.115Z,5.93
2022-11-18T21:34:15.297Z,4.93
2022-11-18T21:36:48.040Z,5.87
2022-11-18T21:39:19.748Z,7.40
2022-11-18T21:41:53.598Z,7.13
2022-11-18T21:44:21.865Z,6.77
2022-11-18T21:46:49.811Z,6.60
2022-11-18T21:49:18.028Z,7.17
2022-11-18T21:51:47.591Z,7.80
2022-11-18T21:54:18.467Z,6.43
2022-11-18T21:56:46.497Z,8.40
2022-11-18T21:59:14.443Z,7.40
2022-11-18T22:01:42.360Z,6.87
2022-11-18T22:04:30.266Z,6.13
2022-11-18T22:06:59.649Z,7.67
2022-11-18T22:09:32.868Z,7.30
2022-11-18T22:12:00.936Z,6.97
2022-11-18T22:14:28.818Z,7.47
2022-11-18T22:16:56.715Z,5.97
2022-11-18T22:19:24.843Z,6.33
2022-11-18T22:21:52.871Z,6.23
2022-11-18T22:24:22.431Z,6.23
2022-11-18T22:26:50.320Z,4.73
2022-11-18T22:29:18.587Z,3.37
2022-11-18T22:31:46.703Z,4.20
2022-11-18T22:34:14.689Z,3.80
2022-11-18T22:36:42.639Z,4.70
2022-11-18T22:39:10.693Z,3.83
2022-11-18T22:41:57.095Z,4.00
2022-11-18T22:44:25.021Z,4.23
2022-11-18T22:46:53.098Z,4.37
2022-11-18T22:49:21.400Z,4.87
2022-11-18T22:51:49.683Z,4.80
2022-11-18T22:57:09.291Z,4.53
2022-11-18T22:59:37.387Z,5.10
2022-11-18T23:02:05.375Z,5.17
2022-11-18T23:04:33.378Z,4.97
2022-11-18T23:07:01.308Z,5.30
2022-11-18T23:09:29.478Z,4.57
2022-11-18T23:12:14.630Z,4.20
2022-11-18T23:14:43.975Z,4.77
2022-11-18T23:17:11.937Z,5.33
2022-11-18T23:19:43.782Z,5.40
2022-11-18T23:22:11.943Z,4.77
2022-11-18T23:24:39.889Z,5.10
2022-11-18T23:27:08.047Z,9.10
2022-11-18T23:29:38.126Z,4.93
2022-11-18T23:32:10.645Z,4.93
2022-11-18T23:34:40.394Z,5.73
2022-11-18T23:37:08.325Z,5.33
2022-11-18T23:39:37.495Z,4.53
2022-11-18T23:42:05.488Z,4.77
2022-11-18T23:44:59.772Z,4.10
2022-11-18T23:47:31.669Z,3.67
2022-11-18T23:49:59.594Z,4.37
2022-11-18T23:52:27.513Z,3.17
2022-11-18T23:54:56.253Z,3.30
2022-11-18T23:57:24.142Z,3.10
2022-11-18T23:59:52.069Z,2.27
